createdAt,value
2023-05-02T09:15:14.378Z,25.00
2023-05-02T09:16:14.482Z,25.00
2023-05-02T09:17:14.416Z,25.00
2023-05-02T09:18:14.432Z,25.00
2023-05-02T09:19:14.445Z,25.00
2023-05-02T09:20:14.435Z,25.00
2023-05-02T09:21:14.519Z,0.00
2023-05-02T09:22:14.431Z,0.00
2023-05-02T09:23:14.860Z,0.00
2023-05-02T09:24:14.412Z,0.00
2023-05-02T09:25:14.443Z,0.00
2023-05-02T09:26:14.464Z,0.00
2023-05-02T09:27:14.553Z,0.00
2023-05-02T09:28:14.572Z,0.00
2023-05-02T09:29:14.648Z,0.00
2023-05-02T09:30:14.848Z,0.00
2023-05-02T09:31:16.914Z,0.00
2023-05-02T09:32:14.815Z,0.00
2023-05-02T09:33:15.507Z,0.00
2023-05-02T09:34:14.746Z,0.00
2023-05-02T09:35:14.727Z,0.00
2023-05-02T09:36:14.752Z,0.00
2023-05-02T09:37:14.730Z,0.00
2023-05-02T09:38:14.718Z,0.00
2023-05-02T09:39:14.709Z,0.00
2023-05-02T09:40:14.684Z,0.00
2023-05-02T09:41:14.701Z,0.00
2023-05-02T09:42:14.674Z,0.00
2023-05-02T09:43:14.673Z,0.00
2023-05-02T09:44:14.678Z,0.00
2023-05-02T09:45:14.681Z,0.00
2023-05-02T09:46:14.717Z,0.00
2023-05-02T09:47:14.773Z,0.00
2023-05-02T09:48:14.652Z,0.00
2023-05-02T09:49:14.651Z,0.00
2023-05-02T09:50:14.639Z,0.00
2023-05-02T09:51:14.630Z,0.00
2023-05-02T09:52:14.684Z,0.00
2023-05-02T09:53:14.616Z,0.00
2023-05-02T09:54:14.620Z,0.00
2023-05-02T09:55:14.634Z,0.00
2023-05-02T09:56:14.631Z,0.00
2023-05-02T09:57:14.634Z,0.00
2023-05-02T09:58:14.641Z,0.00
2023-05-02T09:59:14.681Z,0.00
2023-05-02T10:00:14.642Z,0.00
2023-05-02T10:01:14.725Z,0.00
2023-05-02T10:02:14.637Z,0.00
2023-05-02T10:03:14.792Z,0.00
2023-05-02T10:04:14.670Z,0.00
2023-05-02T10:05:14.761Z,0.00
2023-05-02T10:06:14.943Z,0.00
2023-05-02T10:07:14.660Z,3.20
2023-05-02T10:08:14.893Z,23.78
2023-05-02T10:09:18.878Z,25.27
2023-05-02T10:10:15.650Z,25.32
2023-05-02T10:11:14.861Z,22.17
2023-05-02T10:12:14.648Z,20.74
2023-05-02T10:13:14.641Z,12.43
2023-05-02T10:14:14.628Z,6.36
2023-05-02T10:15:14.605Z,27.92
2023-05-02T10:16:14.876Z,25.00
2023-05-02T10:17:14.615Z,26.36
2023-05-02T10:18:14.666Z,25.60
2023-05-02T10:19:14.575Z,26.62
2023-05-02T10:20:14.613Z,25.93
2023-05-02T10:21:14.562Z,34.38
2023-05-02T10:22:14.587Z,0.00
2023-05-02T10:23:14.886Z,0.00
2023-05-02T10:24:14.549Z,0.00
2023-05-02T10:25:14.534Z,25.88
2023-05-02T10:26:14.870Z,29.61
2023-05-02T10:27:15.381Z,46.72
2023-05-02T10:28:14.524Z,55.70
2023-05-02T10:29:14.500Z,54.59
2023-05-02T10:30:14.516Z,59.85
2023-05-02T10:31:14.904Z,52.85
2023-05-02T10:32:14.492Z,47.63
2023-05-02T10:33:15.046Z,53.68
2023-05-02T10:34:14.487Z,49.43
2023-05-02T10:35:14.473Z,42.77
2023-05-02T10:36:14.903Z,38.81
2023-05-02T10:37:14.470Z,25.60
2023-05-02T10:38:14.898Z,33.67
2023-05-02T10:39:14.431Z,49.12
2023-05-02T10:40:14.441Z,59.47
2023-05-02T10:41:14.432Z,61.90
2023-05-02T10:42:14.408Z,65.96
2023-05-02T10:43:14.444Z,46.52
2023-05-02T10:44:14.408Z,58.33
2023-05-02T10:45:14.416Z,50.72
2023-05-02T10:46:14.446Z,44.75
2023-05-02T10:47:14.380Z,34.58
2023-05-02T10:48:14.387Z,51.28
2023-05-02T10:49:14.380Z,62.08
2023-05-02T10:50:14.376Z,63.66
2023-05-02T10:51:14.395Z,69.63
2023-05-02T10:52:14.392Z,67.34
2023-05-02T10:53:14.409Z,67.03
2023-05-02T10:54:14.408Z,45.28
2023-05-02T10:55:14.408Z,52.78
2023-05-02T10:56:14.406Z,50.75
2023-05-02T10:57:14.379Z,42.07
2023-05-02T10:58:14.393Z,39.11
2023-05-02T10:59:14.377Z,38.38
2023-05-02T11:00:14.432Z,29.54
2023-05-02T11:01:14.429Z,25.00
2023-05-02T11:02:14.444Z,25.31
2023-05-02T11:03:14.573Z,19.16
2023-05-02T11:04:14.416Z,0.00
2023-05-02T11:05:14.428Z,29.16
2023-05-02T11:06:14.458Z,43.68
2023-05-02T11:07:14.453Z,53.68
2023-05-02T11:08:14.433Z,56.07
2023-05-02T11:09:14.472Z,51.15
2023-05-02T11:10:14.508Z,47.27
2023-05-02T11:11:14.455Z,41.90
2023-05-02T11:12:14.454Z,36.44
2023-05-02T11:13:14.442Z,26.51
2023-05-02T11:14:14.494Z,29.32
2023-05-02T11:15:14.438Z,43.12
2023-05-02T11:16:14.961Z,18.52
2023-05-02T11:17:14.528Z,24.45
2023-05-02T11:18:14.763Z,31.14
2023-05-02T11:19:14.581Z,56.56
2023-05-02T11:20:14.601Z,86.62
2023-05-02T11:21:14.602Z,103.94
2023-05-02T11:22:14.624Z,112.21
2023-05-02T11:23:14.638Z,112.84
2023-05-02T11:24:14.669Z,116.44
2023-05-02T11:25:14.672Z,120.17
2023-05-02T11:26:14.689Z,123.36
2023-05-02T11:27:14.720Z,131.05
2023-05-02T11:28:14.691Z,128.21
2023-05-02T11:29:14.711Z,126.02
2023-05-02T11:30:14.713Z,124.54
2023-05-02T11:31:14.710Z,126.15
2023-05-02T11:32:14.784Z,123.37
2023-05-02T11:33:14.739Z,124.00
2023-05-02T11:34:14.681Z,124.88
2023-05-02T11:35:14.689Z,124.23
2023-05-02T11:36:14.694Z,118.29
2023-05-02T11:37:14.703Z,116.49
2023-05-02T11:38:14.697Z,110.56
2023-05-02T11:39:14.682Z,105.67
2023-05-02T11:40:14.682Z,101.80
2023-05-02T11:41:14.686Z,103.16
2023-05-02T11:42:14.685Z,99.14
2023-05-02T11:43:14.715Z,100.71
2023-05-02T11:44:14.740Z,101.03
2023-05-02T11:45:14.717Z,98.20
2023-05-02T11:46:14.834Z,96.60
2023-05-02T11:47:14.720Z,92.39
2023-05-02T11:48:14.852Z,88.64
2023-05-02T11:49:15.229Z,86.11
2023-05-02T11:50:14.747Z,84.20
2023-05-02T11:51:14.764Z,81.78
2023-05-02T11:52:14.771Z,77.22
2023-05-02T11:53:14.810Z,76.28
2023-05-02T11:54:14.789Z,74.71
2023-05-02T11:55:14.792Z,72.14
2023-05-02T11:56:14.836Z,72.38
2023-05-02T11:57:14.846Z,67.94
2023-05-02T11:58:14.887Z,68.38
2023-05-02T11:59:14.862Z,66.85
2023-05-02T12:00:14.878Z,64.82
2023-05-02T12:01:15.195Z,65.72
2023-05-02T12:02:14.941Z,61.17
2023-05-02T12:03:14.969Z,55.87
2023-05-02T12:04:14.922Z,57.18
2023-05-02T12:05:14.978Z,55.54
2023-05-02T12:06:15.370Z,53.47
2023-05-02T12:07:15.046Z,49.69
2023-05-02T12:08:15.451Z,34.53
2023-05-02T12:09:14.962Z,18.43
2023-05-02T12:10:14.962Z,87.89
2023-05-02T12:11:15.094Z,114.31
2023-05-02T12:12:14.986Z,104.94
2023-05-02T12:13:14.987Z,112.49
2023-05-02T12:14:14.992Z,35.99
2023-05-02T12:15:14.999Z,5.25
2023-05-02T12:16:15.290Z,11.38
2023-05-02T12:17:15.011Z,76.49
2023-05-02T12:18:15.039Z,98.65
2023-05-02T12:19:15.043Z,102.06
2023-05-02T12:20:15.050Z,106.18
2023-05-02T12:21:15.055Z,108.72
2023-05-02T12:22:15.070Z,113.52
2023-05-02T12:23:15.094Z,112.54
2023-05-02T12:24:15.102Z,107.75
2023-05-02T12:25:15.095Z,107.52
2023-05-02T12:26:15.422Z,104.87
2023-05-02T12:27:15.149Z,104.88
2023-05-02T12:28:15.145Z,102.48
2023-05-02T12:29:15.149Z,105.10
2023-05-02T12:30:15.150Z,105.67
2023-05-02T12:31:15.201Z,110.04
2023-05-02T12:32:15.176Z,112.43
2023-05-02T12:33:15.206Z,113.11
2023-05-02T12:34:15.191Z,112.33
2023-05-02T12:35:15.180Z,115.78
2023-05-02T12:36:15.205Z,120.43
2023-05-02T12:37:15.194Z,118.36
2023-05-02T12:38:15.198Z,123.00
2023-05-02T12:39:15.219Z,124.92
2023-05-02T12:40:15.317Z,124.76
2023-05-02T12:41:15.225Z,125.61
2023-05-02T12:42:15.247Z,123.15
2023-05-02T12:43:15.240Z,122.96
2023-05-02T12:44:15.249Z,121.57
2023-05-02T12:45:15.276Z,126.18
2023-05-02T12:46:15.280Z,122.40
2023-05-02T12:47:15.499Z,118.56
2023-05-02T12:48:15.408Z,120.46
2023-05-02T12:49:15.289Z,119.53
2023-05-02T12:50:15.313Z,114.87
2023-05-02T12:51:15.339Z,115.34
2023-05-02T12:52:15.330Z,119.30
2023-05-02T12:53:15.346Z,121.47
2023-05-02T12:54:15.363Z,113.47
2023-05-02T12:55:15.387Z,106.32
2023-05-02T12:56:15.376Z,105.14
2023-05-02T12:57:15.411Z,105.44
2023-05-02T12:58:15.410Z,103.91
2023-05-02T12:59:15.427Z,105.44
2023-05-02T13:00:15.428Z,100.99
2023-05-02T13:01:15.544Z,95.11
2023-05-02T13:02:15.467Z,90.41
2023-05-02T13:03:15.581Z,88.07
2023-05-02T13:04:15.631Z,84.57
2023-05-02T13:05:15.530Z,82.70
2023-05-02T13:06:15.544Z,83.88
2023-05-02T13:07:15.562Z,83.63
2023-05-02T13:08:15.562Z,78.54
2023-05-02T13:09:15.934Z,77.88
2023-05-02T13:10:15.584Z,75.27
2023-05-02T13:11:15.641Z,70.38
2023-05-02T13:12:15.615Z,66.15
2023-05-02T13:13:15.647Z,65.10
2023-05-02T13:14:15.659Z,62.64
2023-05-02T13:15:15.701Z,62.36
2023-05-02T13:16:15.792Z,64.91
2023-05-02T13:17:15.839Z,61.55
2023-05-02T13:18:15.861Z,59.73
2023-05-02T13:19:15.776Z,54.70
2023-05-02T13:20:15.777Z,51.02
2023-05-02T13:21:15.797Z,53.91
2023-05-02T13:22:15.791Z,52.74
2023-05-02T13:23:15.829Z,51.68
2023-05-02T13:24:15.842Z,50.32
2023-05-02T13:25:15.880Z,50.92
2023-05-02T13:26:15.903Z,46.87
2023-05-02T13:27:15.916Z,45.84
2023-05-02T13:28:15.953Z,42.55
2023-05-02T13:29:15.969Z,44.13
2023-05-02T13:30:16.008Z,38.48
2023-05-02T13:31:16.027Z,39.87
2023-05-02T13:32:16.030Z,40.12
2023-05-02T13:33:16.050Z,36.64
2023-05-02T13:34:16.063Z,36.89
2023-05-02T13:35:16.112Z,33.05
2023-05-02T13:36:16.119Z,32.33
2023-05-02T13:37:16.142Z,29.54
2023-05-02T13:38:16.157Z,36.16
2023-05-02T13:39:16.195Z,35.96
2023-05-02T13:40:16.223Z,35.62
2023-05-02T13:41:16.238Z,33.86
2023-05-02T13:42:16.248Z,31.84
2023-05-02T13:43:16.303Z,32.58
2023-05-02T13:44:16.316Z,28.53
2023-05-02T13:45:16.373Z,25.00
2023-05-02T13:46:16.371Z,25.00
2023-05-02T13:47:16.409Z,25.82
2023-05-02T13:48:16.503Z,25.00
2023-05-02T13:49:16.487Z,28.99
2023-05-02T13:50:16.503Z,30.13
2023-05-02T13:51:16.522Z,29.86
2023-05-02T13:52:16.542Z,34.68
2023-05-02T13:53:16.568Z,35.03
2023-05-02T13:54:16.605Z,31.40
2023-05-02T13:55:16.631Z,26.95
2023-05-02T13:56:16.642Z,30.12
2023-05-02T13:57:16.672Z,30.36
2023-05-02T13:58:16.710Z,25.55
2023-05-02T13:59:16.719Z,25.00
2023-05-02T14:00:16.743Z,26.57
2023-05-02T14:01:16.823Z,28.11
2023-05-02T14:02:16.848Z,26.03
2023-05-02T14:03:16.931Z,26.81
2023-05-02T14:04:16.873Z,26.05
2023-05-02T14:05:16.875Z,28.87
2023-05-02T14:06:16.971Z,26.93
2023-05-02T14:07:16.939Z,25.78
2023-05-02T14:08:16.948Z,33.67
2023-05-02T14:09:16.984Z,37.18
2023-05-02T14:10:17.018Z,37.51
2023-05-02T14:11:17.034Z,38.64
2023-05-02T14:12:17.058Z,37.67
2023-05-02T14:13:17.074Z,36.82
2023-05-02T14:14:17.114Z,34.26
2023-05-02T14:15:17.144Z,28.20
2023-05-02T14:16:17.228Z,26.88
2023-05-02T14:17:17.202Z,28.36
2023-05-02T14:18:17.222Z,28.01
2023-05-02T14:19:17.254Z,33.07
2023-05-02T14:20:17.286Z,34.62
2023-05-02T14:21:17.330Z,35.29
2023-05-02T14:22:17.361Z,37.24
2023-05-02T14:23:17.378Z,33.07
2023-05-02T14:24:17.419Z,25.00
2023-05-02T14:25:17.457Z,30.42
2023-05-02T14:26:17.495Z,26.74
2023-05-02T14:27:17.503Z,25.03
2023-05-02T14:28:17.573Z,30.68
2023-05-02T14:29:17.572Z,34.30
2023-05-02T14:30:17.607Z,35.75
2023-05-02T14:31:17.648Z,35.37
2023-05-02T14:32:17.686Z,36.28
2023-05-02T14:33:17.725Z,36.73
2023-05-02T14:34:17.756Z,43.32
2023-05-02T14:35:17.777Z,44.54
2023-05-02T14:36:17.815Z,44.23
2023-05-02T14:37:17.850Z,46.09
2023-05-02T14:38:17.865Z,50.65
2023-05-02T14:39:17.903Z,51.95
2023-05-02T14:40:17.949Z,50.32
2023-05-02T14:41:17.992Z,55.80
2023-05-02T14:42:18.021Z,55.11
2023-05-02T14:43:18.030Z,54.23
2023-05-02T14:44:18.097Z,54.35
2023-05-02T14:45:18.100Z,51.40
2023-05-02T14:46:18.161Z,54.63
2023-05-02T14:47:18.243Z,62.76
2023-05-02T14:48:18.224Z,63.25
2023-05-02T14:49:18.240Z,62.59
2023-05-02T14:50:18.251Z,64.01
2023-05-02T14:51:18.283Z,63.92
2023-05-02T14:52:18.335Z,68.08
2023-05-02T14:53:18.344Z,69.16
2023-05-02T14:54:18.391Z,63.81
2023-05-02T14:55:18.412Z,62.13
2023-05-02T14:56:18.452Z,51.88
2023-05-02T14:57:18.495Z,60.91
2023-05-02T14:58:18.514Z,60.79
2023-05-02T14:59:18.556Z,61.67
2023-05-02T15:00:18.578Z,63.48
2023-05-02T15:01:18.666Z,68.17
2023-05-02T15:02:18.683Z,62.83
2023-05-02T15:03:18.797Z,64.99
2023-05-02T15:04:18.930Z,68.83
2023-05-02T15:05:18.814Z,66.64
2023-05-02T15:06:18.887Z,66.61
2023-05-02T15:07:18.962Z,66.66
2023-05-02T15:08:18.866Z,65.99
2023-05-02T15:09:18.902Z,70.23
2023-05-02T15:10:18.956Z,80.63
2023-05-02T15:11:19.024Z,75.91
2023-05-02T15:12:19.035Z,76.85
2023-05-02T15:13:19.068Z,80.17
2023-05-02T15:14:19.083Z,80.54
2023-05-02T15:15:19.125Z,68.75
2023-05-02T15:16:19.196Z,64.90
2023-05-02T15:17:19.217Z,54.25
2023-05-02T15:18:19.260Z,73.23
2023-05-02T15:19:19.276Z,76.21
2023-05-02T15:20:19.309Z,78.21
2023-05-02T15:21:19.368Z,80.34
2023-05-02T15:22:19.387Z,80.64
2023-05-02T15:23:19.434Z,84.69
2023-05-02T15:24:19.463Z,71.26
2023-05-02T15:25:19.505Z,66.47
2023-05-02T15:26:19.556Z,75.54
2023-05-02T15:27:19.634Z,82.06
2023-05-02T15:28:19.636Z,86.71
2023-05-02T15:29:19.674Z,81.90
2023-05-02T15:30:21.884Z,76.54
2023-05-02T15:31:19.768Z,74.60
2023-05-02T15:32:19.733Z,52.15
2023-05-02T15:33:19.688Z,32.23
2023-05-02T15:34:19.665Z,51.93
2023-05-02T15:35:19.664Z,69.74
2023-05-02T15:36:19.681Z,49.97
2023-05-02T15:37:19.668Z,66.48
2023-05-02T15:38:19.647Z,67.93
2023-05-02T15:39:19.654Z,70.02
2023-05-02T15:40:19.659Z,75.98
2023-05-02T15:41:19.645Z,69.03
2023-05-02T15:42:19.668Z,67.02
2023-05-02T15:43:19.620Z,46.94
2023-05-02T15:44:19.602Z,41.56
2023-05-02T15:45:19.590Z,61.98
2023-05-02T15:46:19.613Z,64.32
2023-05-02T15:47:20.888Z,65.60
2023-05-02T15:48:19.588Z,80.71
2023-05-02T15:49:19.581Z,76.78
2023-05-02T15:50:19.565Z,80.80
2023-05-02T15:51:19.581Z,83.34
2023-05-02T15:52:19.565Z,77.00
2023-05-02T15:53:19.560Z,64.37
2023-05-02T15:54:19.619Z,58.85
2023-05-02T15:55:19.614Z,47.93
2023-05-02T15:56:19.648Z,70.02
2023-05-02T15:57:19.711Z,59.58
2023-05-02T15:58:19.751Z,72.19
2023-05-02T15:59:19.771Z,42.30
2023-05-02T16:00:19.831Z,50.19
2023-05-02T16:01:19.916Z,75.29
2023-05-02T16:02:19.916Z,72.58
2023-05-02T16:03:20.201Z,70.67
2023-05-02T16:04:20.036Z,65.35
2023-05-02T16:05:20.046Z,66.12
2023-05-02T16:06:20.178Z,72.19
2023-05-02T16:07:20.144Z,76.13
2023-05-02T16:08:20.191Z,86.65
2023-05-02T16:09:20.274Z,87.65
2023-05-02T16:10:20.309Z,62.47
2023-05-02T16:11:20.352Z,35.30
2023-05-02T16:12:20.384Z,32.61
2023-05-02T16:13:20.437Z,35.76
2023-05-02T16:14:20.486Z,33.45
2023-05-02T16:15:20.536Z,28.07
2023-05-02T16:16:20.679Z,29.95
2023-05-02T16:17:20.664Z,27.06
2023-05-02T16:18:20.694Z,25.52
2023-05-02T16:19:21.528Z,28.67
2023-05-02T16:20:20.772Z,29.83
2023-05-02T16:21:20.857Z,35.60
2023-05-02T16:22:20.891Z,38.17
2023-05-02T16:23:20.944Z,36.37
2023-05-02T16:24:20.980Z,37.27
2023-05-02T16:25:21.025Z,38.90
2023-05-02T16:26:21.154Z,33.64
2023-05-02T16:27:21.171Z,37.53
2023-05-02T16:28:21.196Z,35.31
2023-05-02T16:29:21.256Z,36.19
2023-05-02T16:30:21.314Z,47.93
2023-05-02T16:31:21.436Z,57.88
2023-05-02T16:32:21.416Z,66.20
2023-05-02T16:33:21.502Z,61.09
2023-05-02T16:34:21.518Z,64.42
2023-05-02T16:35:21.580Z,68.69
2023-05-02T16:36:21.640Z,73.66
2023-05-02T16:37:22.519Z,75.30
2023-05-02T16:38:21.730Z,71.71
2023-05-02T16:39:21.808Z,79.93
2023-05-02T16:40:21.859Z,86.28
2023-05-02T16:41:21.956Z,85.80
2023-05-02T16:42:21.964Z,67.12
2023-05-02T16:43:22.035Z,46.54
2023-05-02T16:44:22.077Z,53.75
2023-05-02T16:45:22.128Z,58.20
2023-05-02T16:46:22.260Z,63.63
2023-05-02T16:47:22.242Z,58.49
2023-05-02T16:48:22.291Z,63.95
2023-05-02T16:49:22.356Z,70.37
2023-05-02T16:50:22.427Z,61.52
2023-05-02T16:51:22.460Z,58.14
2023-05-02T16:52:22.537Z,48.38
2023-05-02T16:53:22.578Z,50.41
2023-05-02T16:54:22.676Z,48.25
2023-05-02T16:55:22.695Z,49.37
2023-05-02T16:56:22.778Z,48.67
2023-05-02T16:57:22.824Z,42.65
2023-05-02T16:58:22.856Z,48.64
2023-05-02T16:59:22.934Z,43.70
2023-05-02T17:00:22.978Z,35.05
2023-05-02T17:01:23.145Z,29.10
2023-05-02T17:02:23.176Z,37.67
2023-05-02T17:03:23.199Z,29.32
2023-05-02T17:04:23.198Z,28.38
2023-05-02T17:05:23.269Z,45.28
2023-05-02T17:06:23.366Z,35.34
2023-05-02T17:07:23.380Z,25.00
2023-05-02T17:08:23.447Z,25.00
2023-05-02T17:09:23.513Z,34.58
2023-05-02T17:10:23.570Z,50.57
2023-05-02T17:11:23.686Z,47.36
2023-05-02T17:12:23.693Z,41.31
2023-05-02T17:13:23.744Z,44.36
2023-05-02T17:14:23.822Z,54.97
2023-05-02T17:15:23.873Z,40.86
2023-05-02T17:16:24.011Z,50.83
2023-05-02T17:17:24.019Z,56.91
2023-05-02T17:18:24.124Z,63.32
2023-05-02T17:19:24.094Z,64.14
2023-05-02T17:20:24.164Z,59.11
2023-05-02T17:21:24.260Z,63.04
2023-05-02T17:22:24.293Z,58.38
2023-05-02T17:23:24.359Z,59.33
2023-05-02T17:24:24.429Z,56.97
2023-05-02T17:25:24.474Z,61.04
2023-05-02T17:26:24.559Z,57.65
2023-05-02T17:27:24.596Z,66.01
2023-05-02T17:28:24.650Z,78.14
2023-05-02T17:29:24.718Z,67.50
2023-05-02T17:30:24.793Z,54.56
2023-05-02T17:31:24.888Z,60.42
2023-05-02T17:32:24.945Z,70.64
2023-05-02T17:33:24.989Z,59.12
2023-05-02T17:34:25.000Z,62.73
2023-05-02T17:35:25.063Z,67.06
2023-05-02T17:36:25.130Z,64.35
2023-05-02T17:37:25.190Z,62.56
2023-05-02T17:38:25.236Z,57.32
2023-05-02T17:39:25.292Z,59.54
2023-05-02T17:40:25.363Z,56.14
2023-05-02T17:41:25.445Z,59.60
2023-05-02T17:42:25.509Z,63.85
2023-05-02T17:43:25.554Z,57.42
2023-05-02T17:44:25.598Z,60.12
2023-05-02T17:45:25.663Z,65.46
2023-05-02T17:46:25.834Z,60.59
2023-05-02T17:47:25.806Z,60.31
2023-05-02T17:48:25.910Z,61.32
2023-05-02T17:49:25.947Z,55.79
2023-05-02T17:50:25.983Z,57.76
2023-05-02T17:51:26.087Z,57.22
2023-05-02T17:52:26.121Z,57.29
2023-05-02T17:53:26.230Z,62.86
2023-05-02T17:54:26.263Z,59.69
2023-05-02T17:55:26.319Z,56.48
2023-05-02T17:56:26.406Z,59.67
2023-05-02T17:57:26.456Z,65.01
2023-05-02T17:58:26.528Z,59.44
2023-05-02T17:59:26.600Z,66.05
2023-05-02T18:00:26.658Z,58.18
2023-05-02T18:01:26.772Z,58.52
2023-05-02T18:02:26.885Z,57.34
2023-05-02T18:03:26.894Z,64.02
2023-05-02T18:04:26.919Z,65.41
2023-05-02T18:05:26.963Z,57.95
2023-05-02T18:06:27.090Z,62.26
2023-05-02T18:07:27.110Z,64.91
2023-05-02T18:08:27.185Z,60.04
2023-05-02T18:09:27.229Z,61.50
2023-05-02T18:10:27.299Z,64.06
2023-05-02T18:11:27.369Z,65.19
2023-05-02T18:12:27.413Z,65.62
2023-05-02T18:13:27.483Z,62.43
2023-05-02T18:14:27.561Z,61.78
2023-05-02T18:15:27.721Z,61.34
2023-05-02T18:16:27.787Z,63.35
2023-05-02T18:17:27.838Z,56.98
2023-05-02T18:18:27.827Z,56.88
2023-05-02T18:19:27.876Z,62.37
2023-05-02T18:20:27.940Z,60.71
2023-05-02T18:21:28.007Z,60.39
2023-05-02T18:22:28.058Z,63.46
2023-05-02T18:23:28.142Z,64.31
2023-05-02T18:24:28.232Z,62.25
2023-05-02T18:25:28.252Z,65.13
2023-05-02T18:26:28.313Z,58.97
2023-05-02T18:27:28.397Z,60.67
2023-05-02T18:28:28.447Z,71.35
2023-05-02T18:29:28.513Z,65.00
2023-05-02T18:30:28.568Z,60.00
2023-05-02T18:31:28.676Z,69.56
2023-05-02T18:32:28.744Z,63.24
2023-05-02T18:33:28.764Z,66.88
2023-05-02T18:34:28.823Z,69.68
2023-05-02T18:35:28.881Z,69.58
2023-05-02T18:36:28.976Z,69.28
2023-05-02T18:37:29.002Z,66.68
2023-05-02T18:38:29.068Z,69.18
2023-05-02T18:39:29.132Z,63.76
2023-05-02T18:40:29.220Z,71.61
2023-05-02T18:41:29.257Z,73.76
2023-05-02T18:42:29.332Z,72.94
2023-05-02T18:43:29.388Z,72.50
2023-05-02T18:44:29.454Z,68.63
2023-05-02T18:45:29.536Z,66.05
2023-05-02T18:46:29.617Z,70.22
2023-05-02T18:47:29.676Z,75.61
2023-05-02T18:48:29.748Z,72.69
2023-05-02T18:49:29.779Z,72.97
2023-05-02T18:50:29.840Z,76.23
2023-05-02T18:51:29.905Z,77.95
2023-05-02T18:52:29.972Z,76.58
2023-05-02T18:53:30.023Z,74.50
2023-05-02T18:54:30.065Z,76.81
2023-05-02T18:55:30.177Z,73.98
2023-05-02T18:56:30.200Z,78.82
2023-05-02T18:57:30.225Z,76.69
2023-05-02T18:58:30.301Z,74.38
2023-05-02T18:59:30.333Z,77.30
2023-05-02T19:00:30.385Z,75.97
2023-05-02T19:01:30.498Z,78.98
2023-05-02T19:02:30.536Z,73.95
2023-05-02T19:03:30.737Z,75.91
2023-05-02T19:04:30.616Z,77.27
2023-05-02T19:05:30.671Z,78.77
2023-05-02T19:06:30.766Z,79.22
2023-05-02T19:07:30.749Z,76.74
2023-05-02T19:08:30.799Z,78.06
2023-05-02T19:09:30.889Z,82.31
2023-05-02T19:10:30.920Z,79.22
2023-05-02T19:11:30.986Z,78.71
2023-05-02T19:12:31.035Z,78.43
2023-05-02T19:13:31.039Z,76.79
2023-05-02T19:14:31.099Z,79.68
2023-05-02T19:15:31.128Z,78.67
2023-05-02T19:16:31.266Z,75.23
2023-05-02T19:17:31.248Z,75.41
2023-05-02T19:18:31.255Z,77.89
2023-05-02T19:19:31.309Z,74.40
2023-05-02T19:20:31.387Z,76.71
2023-05-02T19:21:31.413Z,70.91
2023-05-02T19:22:31.460Z,74.58
2023-05-02T19:23:31.483Z,71.80
2023-05-02T19:24:31.518Z,73.88
2023-05-02T19:25:31.528Z,73.58
2023-05-02T19:26:31.588Z,74.41
2023-05-02T19:27:31.652Z,75.44
2023-05-02T19:28:31.660Z,76.62
2023-05-02T19:29:31.717Z,77.67
2023-05-02T19:30:31.753Z,77.78
2023-05-02T19:31:31.857Z,78.30
2023-05-02T19:32:31.883Z,78.67
2023-05-02T19:33:31.889Z,76.99
2023-05-02T19:34:31.937Z,70.91
2023-05-02T19:35:31.975Z,71.60
2023-05-02T19:36:32.018Z,74.10
2023-05-02T19:37:32.072Z,74.96
2023-05-02T19:38:32.121Z,76.38
2023-05-02T19:39:32.171Z,75.30
2023-05-02T19:40:32.235Z,74.48
2023-05-02T19:41:32.274Z,74.78
2023-05-02T19:42:32.293Z,76.83
2023-05-02T19:43:32.335Z,77.82
2023-05-02T19:44:32.396Z,76.88
2023-05-02T19:45:32.418Z,76.53
2023-05-02T19:46:32.581Z,76.55
2023-05-02T19:47:32.571Z,78.73
2023-05-02T19:48:32.530Z,76.60
2023-05-02T19:49:32.614Z,75.98
2023-05-02T19:50:32.607Z,78.50
2023-05-02T19:51:32.659Z,79.75
2023-05-02T19:52:32.663Z,76.55
2023-05-02T19:53:32.700Z,73.67
2023-05-02T19:54:32.725Z,77.42
2023-05-02T19:55:32.739Z,75.45
2023-05-02T19:56:32.818Z,75.58
2023-05-02T19:57:32.835Z,75.73
2023-05-02T19:58:32.849Z,72.86
2023-05-02T19:59:32.918Z,79.06
2023-05-02T20:00:32.959Z,74.60
2023-05-02T20:01:33.032Z,76.29
2023-05-02T20:02:33.139Z,73.43
2023-05-02T20:03:33.094Z,78.68
2023-05-02T20:04:33.129Z,75.87
2023-05-02T20:05:33.176Z,77.60
2023-05-02T20:06:33.223Z,74.03
2023-05-02T20:07:33.268Z,74.20
2023-05-02T20:08:33.295Z,73.23
2023-05-02T20:09:33.352Z,73.26
2023-05-02T20:10:33.405Z,77.87
2023-05-02T20:11:33.431Z,81.21
2023-05-02T20:12:33.475Z,77.13
2023-05-02T20:13:33.533Z,77.42
2023-05-02T20:14:33.571Z,81.34
2023-05-02T20:15:33.609Z,79.10
2023-05-02T20:16:33.656Z,82.54
2023-05-02T20:17:33.703Z,79.92
2023-05-02T20:18:33.741Z,76.72
2023-05-02T20:19:33.765Z,75.06
2023-05-02T20:20:33.806Z,76.69
2023-05-02T20:21:33.869Z,79.65
2023-05-02T20:22:33.883Z,88.14
2023-05-02T20:23:33.895Z,82.36
2023-05-02T20:24:33.980Z,84.30
2023-05-02T20:25:33.951Z,83.13
2023-05-02T20:26:33.996Z,81.70
2023-05-02T20:27:34.017Z,83.88
2023-05-02T20:28:34.046Z,84.59
2023-05-02T20:29:34.088Z,85.64
2023-05-02T20:30:34.130Z,94.41
2023-05-02T20:31:34.204Z,90.21
2023-05-02T20:32:34.173Z,89.97
2023-05-02T20:33:44.447Z,88.12
2023-05-02T20:34:35.189Z,88.31
2023-05-02T20:35:34.172Z,88.72
2023-05-02T20:36:34.184Z,85.94
2023-05-02T20:37:34.180Z,88.59
2023-05-02T20:38:34.179Z,90.96
2023-05-02T20:39:34.199Z,87.03
2023-05-02T20:40:34.139Z,91.78
2023-05-02T20:41:34.151Z,89.19
2023-05-02T20:42:34.125Z,86.37
2023-05-02T20:43:34.138Z,85.98
2023-05-02T20:44:34.117Z,82.88
2023-05-02T20:45:34.128Z,82.84
2023-05-02T20:46:34.177Z,85.86
2023-05-02T20:47:34.164Z,92.72
2023-05-02T20:48:34.092Z,90.19
2023-05-02T20:49:34.087Z,90.55
2023-05-02T20:50:34.116Z,91.33
2023-05-02T20:51:34.120Z,91.74
2023-05-02T20:52:34.077Z,87.19
2023-05-02T20:53:34.086Z,87.14
2023-05-02T20:54:34.076Z,85.96
2023-05-02T20:55:34.074Z,81.56
2023-05-02T20:56:34.084Z,81.68
2023-05-02T20:57:34.094Z,81.46
2023-05-02T20:58:34.100Z,80.53
2023-05-02T20:59:34.091Z,83.80
2023-05-02T21:00:34.112Z,82.66
2023-05-02T21:01:34.155Z,82.88
2023-05-02T21:02:34.135Z,88.12
2023-05-02T21:03:34.175Z,81.61
2023-05-02T21:04:34.154Z,81.13
2023-05-02T21:05:34.166Z,84.99
2023-05-02T21:06:34.233Z,83.61
2023-05-02T21:07:34.152Z,86.22
2023-05-02T21:08:34.140Z,83.43
2023-05-02T21:09:34.128Z,85.26
2023-05-02T21:10:34.139Z,82.94
2023-05-02T21:11:34.142Z,85.77
2023-05-02T21:12:34.161Z,80.41
2023-05-02T21:13:34.161Z,75.15
2023-05-02T21:14:34.202Z,77.90
2023-05-02T21:15:34.250Z,80.84
2023-05-02T21:16:34.271Z,79.41
2023-05-02T21:17:34.213Z,82.65
2023-05-02T21:18:34.164Z,77.10
2023-05-02T21:19:34.206Z,83.31
2023-05-02T21:20:34.195Z,79.19
2023-05-02T21:21:34.183Z,77.82
2023-05-02T21:22:34.214Z,78.33
2023-05-02T21:23:34.222Z,76.26
2023-05-02T21:24:34.253Z,76.72
2023-05-02T21:25:34.257Z,73.44
2023-05-02T21:26:34.246Z,68.09
2023-05-02T21:27:34.316Z,72.55
2023-05-02T21:28:34.280Z,72.51
2023-05-02T21:29:34.312Z,68.63
2023-05-02T21:30:34.319Z,68.93
2023-05-02T21:31:34.376Z,69.69
2023-05-02T21:32:34.405Z,74.60
2023-05-02T21:33:34.346Z,70.92
2023-05-02T21:34:34.672Z,67.88
2023-05-02T21:35:34.378Z,67.43
2023-05-02T21:36:34.375Z,68.73
2023-05-02T21:37:34.411Z,70.09
2023-05-02T21:38:34.402Z,61.58
2023-05-02T21:39:34.395Z,53.42
2023-05-02T21:40:34.424Z,57.97
2023-05-02T21:41:34.432Z,57.75
2023-05-02T21:42:34.455Z,60.51
2023-05-02T21:43:34.427Z,60.23
2023-05-02T21:44:34.447Z,61.23
2023-05-02T21:45:34.440Z,53.37
2023-05-02T21:46:34.450Z,50.90
2023-05-02T21:47:34.454Z,46.77
2023-05-02T21:48:34.459Z,51.62
2023-05-02T21:49:34.468Z,50.76
2023-05-02T21:50:34.471Z,52.32
2023-05-02T21:51:34.506Z,57.49
2023-05-02T21:52:34.484Z,57.91
2023-05-02T21:53:34.508Z,56.62
2023-05-02T21:54:34.482Z,55.32
2023-05-02T21:55:34.479Z,52.56
2023-05-02T21:56:34.463Z,49.74
2023-05-02T21:57:34.477Z,46.98
2023-05-02T21:58:34.459Z,52.96
2023-05-02T21:59:34.473Z,51.23
2023-05-02T22:00:34.521Z,54.11
2023-05-02T22:01:34.449Z,55.00
2023-05-02T22:02:34.563Z,57.42
2023-05-02T22:03:34.501Z,56.10
2023-05-02T22:04:34.478Z,58.31
2023-05-02T22:05:34.503Z,58.64
2023-05-02T22:06:34.580Z,62.44
2023-05-02T22:07:34.436Z,62.38